Terminal Aerodrome Forecast
Issued by NWS Upton, NY

Current Version | Previous Version | Text Only | Print | Product List | Glossary On
Versions: 1 2 3 4 5 6 7 8 9 10 11 12 13 14 15 16 17 18 19 20 21 22 23 24 25 26 27 28 29 30 31
000 FTUS41 KOKX 171333 AAA TAFISP TAF AMD KISP 171333Z 1714/1812 01007KT 3SM -RA BR OVC005 FM171600 34008KT 3SM -RASN BKN015 BKN025 BKN100 FM171900 32010KT P6SM SCT025 BKN100 TEMPO 1720/1723 31011G17KT FM180000 31010KT P6SM SKC TEMPO 1803/1807 31012G18KT FM180800 31010KT P6SM SKC=

USA.gov is the U.S. government's official web portal to all federal, state and local government web resources and services.